(°C)
(°C)
-0°
-1°
-1°
-2°
-2°
-2°
-2°
J
J
J
J
J
J
J
(km/h)
14-31
15-31
16-31
16-31
16-30
16-30
16-29
(mm)
0
0
0
0
0
0
0
(%)
17
16
9
8
1
1
0

Výška Slnka nad obzorom

/ -13.1°
sun-icon
UV 0
07:08
16:57
Dorastajúci polmesiac (132°)
17:24
24:00

Správy METAR pre lokalitu 64.6°S 40.72°V (ULAA)

Čas Podmienky Teplota/
Rosný bod
Vietor Viditeľnosť Počasie Oblaky Tlak Zmeniť Nespracované
VFR 4°C / 2°C 180º variable 130º to 230º 4kt >10km - Few Clouds 2000ft 992 No Significant change. Runway 26: Wet or puddles, 51-100% contamination with <1mm, friction coefficient 0.60. ULAA 161530Z 18002MPS 130V230 9999 FEW020 04/02 Q0992 R26/290060 NOSIG RMK QFE743/0990
VFR 4°C / 3°C variable 2kt >10km - Few Clouds 2000ft 992 No Significant change. Runway 26: Wet or puddles, 51-100% contamination with <1mm, friction coefficient 0.60. ULAA 161500Z VRB01MPS 9999 FEW020 04/03 Q0992 R26/290060 NOSIG RMK QFE742/0990
VFR 5°C / 3°C 200º variable 150º to 270º 4kt >10km - Few Clouds 2000ft 992 No Significant change. Runway 26: Wet or puddles, 51-100% contamination with <1mm, friction coefficient 0.60. ULAA 161430Z 20002MPS 150V270 9999 FEW020 05/03 Q0992 R26/290060 NOSIG RMK QFE742/0990
VFR 6°C / 4°C 220º 8kt >10km - Few Clouds 2000ft 992 No Significant change. Runway 08: Wet or puddles, 51-100% contamination with <1mm, friction coefficient 0.60. ULAA 161400Z 22004MPS 9999 FEW020 06/04 Q0992 R08/290060 NOSIG RMK QFE743/0991
VFR 6°C / 5°C 180º variable 150º to 210º 6kt >10km - Scattered Clouds 2000ft 992 No Significant change. Runway 08: Wet or puddles, 51-100% contamination with <1mm, friction coefficient 0.60. ULAA 161330Z 18003MPS 150V210 9999 SCT020 06/05 Q0992 R08/290060 NOSIG RMK QFE743/0991
VFR 6°C / 5°C 180º variable 150º to 210º 10kt >10km - Scattered Clouds 2000ft 992 No Significant change. Runway 08: Wet or puddles, 51-100% contamination with <1mm, friction coefficient 0.60. ULAA 161300Z 18005MPS 150V210 9999 SCT020 06/05 Q0992 R08/290060 NOSIG RMK QFE743/0990
VFR 6°C / 5°C 180º variable 150º to 220º 10kt >10km - Scattered Clouds 1300ft 991 No Significant change. Runway 08: Wet or puddles, 51-100% contamination with <1mm, friction coefficient 0.60. ULAA 161230Z 18005MPS 150V220 9999 SCT013 06/05 Q0991 R08/290060 NOSIG RMK QFE743/0990
VFR 7°C / 5°C 180º variable 140º to 210º 12kt >10km - Scattered Clouds 1300ft 992 No Significant change. Runway 08: Wet or puddles, 51-100% contamination with <1mm, friction coefficient 0.60. ULAA 161200Z 18006MPS 140V210 9999 SCT013 07/05 Q0992 R08/290060 NOSIG RMK QFE743/0990
MVFR 6°C / 5°C 180º variable 140º to 200º 12kt >10km - Broken Clouds 1100ft 992 No Significant change. Runway 08: Wet or puddles, 51-100% contamination with <1mm, friction coefficient 0.60. ULAA 161130Z 18006MPS 140V200 9999 BKN011 06/05 Q0992 R08/290060 NOSIG RMK QFE743/0991
IFR 5°C / 4°C 180º variable 150º to 210º 12kt >10km - Broken Clouds 700ft
Overcast 1400ft
992 No Significant change. Runway 08: Wet or puddles, 51-100% contamination with <1mm, friction coefficient 0.60. ULAA 161100Z 18006MPS 150V210 9999 BKN007 OVC014 05/04 Q0992 R08/290060 NOSIG RMK QFE743/0991
IFR 5°C / 4°C 180º variable 150º to 210º 10kt >10km - Broken Clouds 600ft
Overcast 1300ft
992 No Significant change. Runway 08: Wet or puddles, 51-100% contamination with <1mm, friction coefficient 0.60. ULAA 161030Z 18005MPS 150V210 9999 BKN006 OVC013 05/04 Q0992 R08/290060 NOSIG RMK QBB190 QFE743/0991
IFR 4°C / 4°C 180º variable 140º to 210º 12kt >10km - Overcast 600ft 992 No Significant change. Runway 08: Wet or puddles, 51-100% contamination with <1mm, friction coefficient 0.60. ULAA 161000Z 18006MPS 140V210 9999 OVC006CB 04/04 Q0992 R08/290060 NOSIG RMK QBB190 QFE743/0991
IFR 4°C / 3°C 170º variable 130º to 210º 8kt >10km - Overcast 500ft 993 No Significant change. Runway 08: Wet or puddles, 51-100% contamination with <1mm, friction coefficient 0.60. ULAA 160930Z 17004MPS 130V210 9999 OVC005CB 04/03 Q0993 R08/290060 NOSIG RMK QBB170 QFE744/0992
IFR 3°C / 3°C 170º variable 130º to 220º 6kt >10km Light Showers Rain 3.00mm precipitation Vertical Visibility of 0ft. 993 No Significant change. Runway 08: Wet or puddles, 51-100% contamination with <1mm, friction coefficient 0.60. ULAA 160900Z 17003MPS 130V220 9999 -SHRA OVC006CB 03/03 Q0993 R08/290060 NOSIG RMK QBB180 QFE744/0992
IFR 3°C / 2°C 170º variable 100º to 210º 6kt 9000m Light Showers Rain 3.00mm precipitation Vertical Visibility of 0ft. 993 No Significant change. Runway 08: Wet or puddles, 51-100% contamination with <1mm, friction coefficient 0.60. ULAA 160830Z 17003MPS 100V210 9000 -SHRA OVC005CB 03/02 Q0993 R08/290060 NOSIG RMK QBB170 QFE744/0992
IFR 2°C / 2°C 180º variable 120º to 220º 8kt >10km Light Showers Rain 3.00mm precipitation Vertical Visibility of 0ft. 993 No Significant change. Runway 08: Wet or puddles, 51-100% contamination with <1mm, friction coefficient 0.60. ULAA 160800Z 18004MPS 120V220 9999 -SHRA OVC005CB 02/02 Q0993 R08/290060 NOSIG RMK QBB170 QFE744/0992
IFR 2°C / 2°C 180º variable 140º to 210º 10kt >10km Light Showers Rain 3.00mm precipitation Vertical Visibility of 0ft. 993 No Significant change. Runway 08: Wet or puddles, 51-100% contamination with <1mm, friction coefficient 0.60. ULAA 160730Z 18005MPS 140V210 9999 -SHRA OVC005CB 02/02 Q0993 R08/290060 NOSIG RMK QBB160 QFE744/0992
IFR 2°C / 1°C 180º variable 150º to 220º 10kt >10km Light Showers Rain 3.00mm precipitation Vertical Visibility of 0ft. 994 No Significant change. Runway 08: Wet or puddles, 51-100% contamination with <1mm, friction coefficient 0.60. ULAA 160700Z 18005MPS 150V220 9999 -SHRA OVC005CB 02/01 Q0994 R08/290060 NOSIG RMK QBB170 QFE744/0993
IFR 2°C / 1°C 180º variable 130º to 210º 10kt 9000m Light Showers Rain 3.00mm precipitation Vertical Visibility of 0ft. 994 No Significant change. Runway 08: Wet or puddles, 51-100% contamination with <1mm, friction coefficient 0.60. ULAA 160630Z 18005MPS 130V210 9000 -SHRA OVC005CB 02/01 Q0994 R08/290060 NOSIG RMK QBB150 QFE744/0993
IFR 1°C / 1°C 180º variable 130º to 230º 8kt 9000m Light Showers Rain 3.00mm precipitation Vertical Visibility of 0ft. 994 No Significant change. Runway 08: Wet or puddles, 51-100% contamination with <1mm, friction coefficient 0.60. ULAA 160600Z 18004MPS 130V230 9000 -SHRA OVC006CB 01/01 Q0994 R08/290060 NOSIG RMK QBB180 QFE745/0993
IFR 1°C / 0°C 170º variable 130º to 220º 8kt 9000m Light Rain 1.00mm precipitation Vertical Visibility of 0ft. 994 No Significant change. Runway 08: Wet or puddles, 51-100% contamination with <1mm, friction coefficient 0.60. ULAA 160530Z 17004MPS 130V220 9000 -RA OVC007 01/00 Q0994 R08/290060 NOSIG RMK QFE745/0993
IFR 1°C / 0°C 170º variable 120º to 220º 8kt >10km - Overcast 800ft 995 No Significant change ULAA 160500Z 17004MPS 120V220 9999 OVC008 01/00 Q0995 R08/CLRD70 NOSIG RMK QFE745/0994
IFR 1°C / 0°C 150º variable 090º to 230º 8kt >10km - Broken Clouds 800ft 995 No Significant change ULAA 160430Z 15004MPS 090V230 9999 BKN008 01/M00 Q0995 R08/CLRD70 NOSIG RMK QFE745/0994
VFR 0°C / 0°C 150º variable 110º to 180º 10kt >10km - Scattered Clouds 800ft 996 No Significant change ULAA 160400Z 15005MPS 110V180 9999 SCT008 00/M00 Q0996 R08/CLRD70 NOSIG RMK QFE746/0995

VFR

4°C / 2°C

[Viac]
Vietor 180º variable 130º to 230º 4kt
Viditeľnosť >10km
Počasie -
Oblaky Few Clouds 2000ft
Tlak 992
Zmeniť No Significant change. Runway 26: Wet or puddles, 51-100% contamination with <1mm, friction coefficient 0.60.
Nespracované ULAA 161530Z 18002MPS 130V230 9999 FEW020 04/02 Q0992 R26/290060 NOSIG RMK QFE743/0990

VFR

4°C / 3°C

[Viac]
Vietor variable 2kt
Viditeľnosť >10km
Počasie -
Oblaky Few Clouds 2000ft
Tlak 992
Zmeniť No Significant change. Runway 26: Wet or puddles, 51-100% contamination with <1mm, friction coefficient 0.60.
Nespracované ULAA 161500Z VRB01MPS 9999 FEW020 04/03 Q0992 R26/290060 NOSIG RMK QFE742/0990

VFR

5°C / 3°C

[Viac]
Vietor 200º variable 150º to 270º 4kt
Viditeľnosť >10km
Počasie -
Oblaky Few Clouds 2000ft
Tlak 992
Zmeniť No Significant change. Runway 26: Wet or puddles, 51-100% contamination with <1mm, friction coefficient 0.60.
Nespracované ULAA 161430Z 20002MPS 150V270 9999 FEW020 05/03 Q0992 R26/290060 NOSIG RMK QFE742/0990

VFR

6°C / 4°C

[Viac]
Vietor 220º 8kt
Viditeľnosť >10km
Počasie -
Oblaky Few Clouds 2000ft
Tlak 992
Zmeniť No Significant change. Runway 08: Wet or puddles, 51-100% contamination with <1mm, friction coefficient 0.60.
Nespracované ULAA 161400Z 22004MPS 9999 FEW020 06/04 Q0992 R08/290060 NOSIG RMK QFE743/0991

VFR

6°C / 5°C

[Viac]
Vietor 180º variable 150º to 210º 6kt
Viditeľnosť >10km
Počasie -
Oblaky Scattered Clouds 2000ft
Tlak 992
Zmeniť No Significant change. Runway 08: Wet or puddles, 51-100% contamination with <1mm, friction coefficient 0.60.
Nespracované ULAA 161330Z 18003MPS 150V210 9999 SCT020 06/05 Q0992 R08/290060 NOSIG RMK QFE743/0991

VFR

6°C / 5°C

[Viac]
Vietor 180º variable 150º to 210º 10kt
Viditeľnosť >10km
Počasie -
Oblaky Scattered Clouds 2000ft
Tlak 992
Zmeniť No Significant change. Runway 08: Wet or puddles, 51-100% contamination with <1mm, friction coefficient 0.60.
Nespracované ULAA 161300Z 18005MPS 150V210 9999 SCT020 06/05 Q0992 R08/290060 NOSIG RMK QFE743/0990

VFR

6°C / 5°C

[Viac]
Vietor 180º variable 150º to 220º 10kt
Viditeľnosť >10km
Počasie -
Oblaky Scattered Clouds 1300ft
Tlak 991
Zmeniť No Significant change. Runway 08: Wet or puddles, 51-100% contamination with <1mm, friction coefficient 0.60.
Nespracované ULAA 161230Z 18005MPS 150V220 9999 SCT013 06/05 Q0991 R08/290060 NOSIG RMK QFE743/0990

VFR

7°C / 5°C

[Viac]
Vietor 180º variable 140º to 210º 12kt
Viditeľnosť >10km
Počasie -
Oblaky Scattered Clouds 1300ft
Tlak 992
Zmeniť No Significant change. Runway 08: Wet or puddles, 51-100% contamination with <1mm, friction coefficient 0.60.
Nespracované ULAA 161200Z 18006MPS 140V210 9999 SCT013 07/05 Q0992 R08/290060 NOSIG RMK QFE743/0990

MVFR

6°C / 5°C

[Viac]
Vietor 180º variable 140º to 200º 12kt
Viditeľnosť >10km
Počasie -
Oblaky Broken Clouds 1100ft
Tlak 992
Zmeniť No Significant change. Runway 08: Wet or puddles, 51-100% contamination with <1mm, friction coefficient 0.60.
Nespracované ULAA 161130Z 18006MPS 140V200 9999 BKN011 06/05 Q0992 R08/290060 NOSIG RMK QFE743/0991

IFR

5°C / 4°C

[Viac]
Vietor 180º variable 150º to 210º 12kt
Viditeľnosť >10km
Počasie -
Oblaky Broken Clouds 700ft
Overcast 1400ft
Tlak 992
Zmeniť No Significant change. Runway 08: Wet or puddles, 51-100% contamination with <1mm, friction coefficient 0.60.
Nespracované ULAA 161100Z 18006MPS 150V210 9999 BKN007 OVC014 05/04 Q0992 R08/290060 NOSIG RMK QFE743/0991

IFR

5°C / 4°C

[Viac]
Vietor 180º variable 150º to 210º 10kt
Viditeľnosť >10km
Počasie -
Oblaky Broken Clouds 600ft
Overcast 1300ft
Tlak 992
Zmeniť No Significant change. Runway 08: Wet or puddles, 51-100% contamination with <1mm, friction coefficient 0.60.
Nespracované ULAA 161030Z 18005MPS 150V210 9999 BKN006 OVC013 05/04 Q0992 R08/290060 NOSIG RMK QBB190 QFE743/0991

IFR

4°C / 4°C

[Viac]
Vietor 180º variable 140º to 210º 12kt
Viditeľnosť >10km
Počasie -
Oblaky Overcast 600ft
Tlak 992
Zmeniť No Significant change. Runway 08: Wet or puddles, 51-100% contamination with <1mm, friction coefficient 0.60.
Nespracované ULAA 161000Z 18006MPS 140V210 9999 OVC006CB 04/04 Q0992 R08/290060 NOSIG RMK QBB190 QFE743/0991

IFR

4°C / 3°C

[Viac]
Vietor 170º variable 130º to 210º 8kt
Viditeľnosť >10km
Počasie -
Oblaky Overcast 500ft
Tlak 993
Zmeniť No Significant change. Runway 08: Wet or puddles, 51-100% contamination with <1mm, friction coefficient 0.60.
Nespracované ULAA 160930Z 17004MPS 130V210 9999 OVC005CB 04/03 Q0993 R08/290060 NOSIG RMK QBB170 QFE744/0992

IFR

3°C / 3°C

[Viac]
Vietor 170º variable 130º to 220º 6kt
Viditeľnosť >10km
Počasie Light Showers Rain 3.00mm precipitation
Oblaky Vertical Visibility of 0ft.
Tlak 993
Zmeniť No Significant change. Runway 08: Wet or puddles, 51-100% contamination with <1mm, friction coefficient 0.60.
Nespracované ULAA 160900Z 17003MPS 130V220 9999 -SHRA OVC006CB 03/03 Q0993 R08/290060 NOSIG RMK QBB180 QFE744/0992

IFR

3°C / 2°C

[Viac]
Vietor 170º variable 100º to 210º 6kt
Viditeľnosť 9000m
Počasie Light Showers Rain 3.00mm precipitation
Oblaky Vertical Visibility of 0ft.
Tlak 993
Zmeniť No Significant change. Runway 08: Wet or puddles, 51-100% contamination with <1mm, friction coefficient 0.60.
Nespracované ULAA 160830Z 17003MPS 100V210 9000 -SHRA OVC005CB 03/02 Q0993 R08/290060 NOSIG RMK QBB170 QFE744/0992

IFR

2°C / 2°C

[Viac]
Vietor 180º variable 120º to 220º 8kt
Viditeľnosť >10km
Počasie Light Showers Rain 3.00mm precipitation
Oblaky Vertical Visibility of 0ft.
Tlak 993
Zmeniť No Significant change. Runway 08: Wet or puddles, 51-100% contamination with <1mm, friction coefficient 0.60.
Nespracované ULAA 160800Z 18004MPS 120V220 9999 -SHRA OVC005CB 02/02 Q0993 R08/290060 NOSIG RMK QBB170 QFE744/0992

IFR

2°C / 2°C

[Viac]
Vietor 180º variable 140º to 210º 10kt
Viditeľnosť >10km
Počasie Light Showers Rain 3.00mm precipitation
Oblaky Vertical Visibility of 0ft.
Tlak 993
Zmeniť No Significant change. Runway 08: Wet or puddles, 51-100% contamination with <1mm, friction coefficient 0.60.
Nespracované ULAA 160730Z 18005MPS 140V210 9999 -SHRA OVC005CB 02/02 Q0993 R08/290060 NOSIG RMK QBB160 QFE744/0992

IFR

2°C / 1°C

[Viac]
Vietor 180º variable 150º to 220º 10kt
Viditeľnosť >10km
Počasie Light Showers Rain 3.00mm precipitation
Oblaky Vertical Visibility of 0ft.
Tlak 994
Zmeniť No Significant change. Runway 08: Wet or puddles, 51-100% contamination with <1mm, friction coefficient 0.60.
Nespracované ULAA 160700Z 18005MPS 150V220 9999 -SHRA OVC005CB 02/01 Q0994 R08/290060 NOSIG RMK QBB170 QFE744/0993

IFR

2°C / 1°C

[Viac]
Vietor 180º variable 130º to 210º 10kt
Viditeľnosť 9000m
Počasie Light Showers Rain 3.00mm precipitation
Oblaky Vertical Visibility of 0ft.
Tlak 994
Zmeniť No Significant change. Runway 08: Wet or puddles, 51-100% contamination with <1mm, friction coefficient 0.60.
Nespracované ULAA 160630Z 18005MPS 130V210 9000 -SHRA OVC005CB 02/01 Q0994 R08/290060 NOSIG RMK QBB150 QFE744/0993

IFR

1°C / 1°C

[Viac]
Vietor 180º variable 130º to 230º 8kt
Viditeľnosť 9000m
Počasie Light Showers Rain 3.00mm precipitation
Oblaky Vertical Visibility of 0ft.
Tlak 994
Zmeniť No Significant change. Runway 08: Wet or puddles, 51-100% contamination with <1mm, friction coefficient 0.60.
Nespracované ULAA 160600Z 18004MPS 130V230 9000 -SHRA OVC006CB 01/01 Q0994 R08/290060 NOSIG RMK QBB180 QFE745/0993

IFR

1°C / 0°C

[Viac]
Vietor 170º variable 130º to 220º 8kt
Viditeľnosť 9000m
Počasie Light Rain 1.00mm precipitation
Oblaky Vertical Visibility of 0ft.
Tlak 994
Zmeniť No Significant change. Runway 08: Wet or puddles, 51-100% contamination with <1mm, friction coefficient 0.60.
Nespracované ULAA 160530Z 17004MPS 130V220 9000 -RA OVC007 01/00 Q0994 R08/290060 NOSIG RMK QFE745/0993

IFR

1°C / 0°C

[Viac]
Vietor 170º variable 120º to 220º 8kt
Viditeľnosť >10km
Počasie -
Oblaky Overcast 800ft
Tlak 995
Zmeniť No Significant change
Nespracované ULAA 160500Z 17004MPS 120V220 9999 OVC008 01/00 Q0995 R08/CLRD70 NOSIG RMK QFE745/0994

IFR

1°C / 0°C

[Viac]
Vietor 150º variable 090º to 230º 8kt
Viditeľnosť >10km
Počasie -
Oblaky Broken Clouds 800ft
Tlak 995
Zmeniť No Significant change
Nespracované ULAA 160430Z 15004MPS 090V230 9999 BKN008 01/M00 Q0995 R08/CLRD70 NOSIG RMK QFE745/0994

VFR

0°C / 0°C

[Viac]
Vietor 150º variable 110º to 180º 10kt
Viditeľnosť >10km
Počasie -
Oblaky Scattered Clouds 800ft
Tlak 996
Zmeniť No Significant change
Nespracované ULAA 160400Z 15005MPS 110V180 9999 SCT008 00/M00 Q0996 R08/CLRD70 NOSIG RMK QFE746/0995

Správy TAF pre lokalitu 64.6°S 40.72°V (ULAA)

From till


From till Wind 180º 6kt. Gust 17kt. Visibility 10km or more. Broken Clouds 1600ft.
Temporarly from till Wind 230º 8kt. Gust 23kt. Visibility 6000m. Light Showers Rain . Few Clouds 600ft. Broken Clouds 1600ft.

Nespracované: TAF ULAA 161400Z 1615/1715 18003G09MPS 9999 BKN016 TEMPO 1615/1715 23004G12MPS 6000 -SHRA FEW006 BKN016CB

Aktuálne satelitné snímky a snímky zrážok pre lokalitu 64.6°S 40.72°V

Značka polohy je umiestnená na64.6°S 40.72°V. [Viac]

Satelitné snímky zhotovované v reálnom čase využívajú viditeľné svetlo počas dňa a infračervené žiarenie počas noci. Vzhľadom na to, že infračervené žiarenie zisťuje teplotné rozdiely, snímka v noci nie je tmavá. Nízke oblaky a hmlu je, žiaľ, ťažké odlíšiť od prízemných teplôt, preto môžu byť počas noci takmer neviditeľné. Meteosat satelitné snímky pre Európu sú aktualizované v reálnom čase každých 5 minút. Snímky z GOES-16/GOES-17 (Severná a Južná Amerika) a Himawari (Ázia) sú aktualizované každých 10 minút.

Copyright 2021 EUMETSAT / meteoblue. / Copyright 2021 meteoblue

Radar a krátkodobá predpoveď zrážok pre 64.6°S 40.72°V

Mrholenie
Slabý
Mierne
Ťažké
Veľmi ťažké
Krúpy

Značka polohy je umiestnená na 64.6°S 40.72°V. Táto animácia ukazuje zrážky pozorované radarom za poslednú hodinu a tiež 1h predpoveď. Mrholenie alebo slabé sneženie môže byť pre radar neviditeľné. Intenzita zrážok je farebne označená od svetlomodrej po oranžovú.